Time;durP1;ratioP1;P1;durP2;ratioP2;P2;SDS_P1;SDS_P2;PMS_P1;PMS_P2;Temp;Humidity;BMP_temperature;BMP_pressure;BME280_temperature;BME280_humidity;BME280_pressure;Samples;Min_cycle;Max_cycle;Signal;HPM_P1;HPM_P2
2022/03/09 00:00:33;;;;;;;6.68;3.83;;;0.50;55.80;;;;;;5037018;28;20655;-77
2022/03/09 00:02:58;;;;;;;6.93;4.25;;;0.50;55.90;;;;;;5031652;28;20033;-76
2022/03/09 00:05:24;;;;;;;9.13;4.05;;;0.50;55.90;;;;;;5052175;28;20090;-76
2022/03/09 00:07:49;;;;;;;10.60;4.60;;;0.40;55.90;;;;;;5061733;28;20078;-76
2022/03/09 00:10:15;;;;;;;8.00;4.47;;;0.40;55.90;;;;;;5054682;28;20135;-77
2022/03/09 00:12:42;;;;;;;11.50;5.75;;;0.40;56.00;;;;;;5046699;28;20543;-76
2022/03/09 00:15:07;;;;;;;11.93;5.90;;;0.40;56.00;;;;;;5045305;28;20394;-76
2022/03/09 00:17:33;;;;;;;8.57;5.05;;;0.30;56.00;;;;;;5043470;28;20078;-76
2022/03/09 00:19:59;;;;;;;11.68;4.57;;;0.30;56.10;;;;;;5056513;28;20032;-76
2022/03/09 00:22:24;;;;;;;10.07;4.88;;;0.20;56.00;;;;;;5063020;28;20564;-77
2022/03/09 00:24:50;;;;;;;8.80;4.65;;;0.10;56.10;;;;;;5037068;28;20041;-77
2022/03/09 00:27:15;;;;;;;7.47;5.53;;;0.10;56.20;;;;;;5063343;28;20035;-77
2022/03/09 00:29:41;;;;;;;9.48;4.55;;;0.00;56.40;;;;;;5059365;28;20131;-77
2022/03/09 00:32:06;;;;;;;8.93;4.72;;;0.00;56.50;;;;;;5049022;28;20040;-76
2022/03/09 00:34:33;;;;;;;8.07;4.57;;;0.10;56.70;;;;;;5034886;28;20402;-77
2022/03/09 00:36:58;;;;;;;11.98;5.68;;;0.10;56.90;;;;;;5057130;28;20037;-76
2022/03/09 00:39:24;;;;;;;10.05;5.15;;;0.10;57.00;;;;;;5052865;28;20043;-76
2022/03/09 00:41:49;;;;;;;6.40;3.80;;;0.00;56.90;;;;;;5047661;28;20040;-77
2022/03/09 00:44:15;;;;;;;8.30;4.72;;;0.00;56.90;;;;;;5047384;28;20029;-77
2022/03/09 00:46:40;;;;;;;10.13;5.00;;;0.00;56.90;;;;;;5048267;28;20032;-77
2022/03/09 00:49:06;;;;;;;8.48;4.55;;;0.00;57.10;;;;;;5029891;28;20505;-76
2022/03/09 00:51:31;;;;;;;8.75;4.55;;;0.00;57.10;;;;;;5048958;28;20044;-77
2022/03/09 00:53:57;;;;;;;12.65;5.20;;;-0.10;57.00;;;;;;5061996;28;20103;-77
2022/03/09 00:56:22;;;;;;;10.63;5.03;;;-0.10;57.00;;;;;;5058387;28;20024;-77
2022/03/09 00:58:48;;;;;;;7.18;4.68;;;-0.10;57.10;;;;;;5057130;28;20534;-77
2022/03/09 01:01:13;;;;;;;10.50;5.05;;;-0.20;57.10;;;;;;5060760;28;20071;-77
2022/03/09 01:03:39;;;;;;;11.52;4.88;;;-0.20;57.20;;;;;;5032689;28;20040;-76
2022/03/09 01:06:05;;;;;;;8.77;4.72;;;-0.30;57.40;;;;;;5046519;28;20033;-77
2022/03/09 01:08:30;;;;;;;9.95;4.90;;;-0.30;57.40;;;;;;5058350;28;20029;-77
2022/03/09 01:10:56;;;;;;;11.10;5.28;;;-0.30;57.50;;;;;;5039939;28;20095;-77
2022/03/09 01:13:21;;;;;;;9.00;5.80;;;-0.30;57.60;;;;;;5025562;28;20059;-77
2022/03/09 01:15:47;;;;;;;10.35;5.30;;;-0.30;57.70;;;;;;5043010;28;20112;-75
2022/03/09 01:18:13;;;;;;;10.65;5.45;;;-0.30;57.80;;;;;;5045940;28;20028;-77
2022/03/09 01:20:39;;;;;;;8.43;5.75;;;-0.30;57.90;;;;;;5042267;28;20062;-75
2022/03/09 01:23:04;;;;;;;10.90;5.90;;;-0.30;57.90;;;;;;5031071;28;20026;-77
2022/03/09 01:25:33;;;;;;;9.38;5.43;;;-0.30;58.00;;;;;;5040377;28;20071;-76
2022/03/09 01:27:58;;;;;;;9.95;4.70;;;-0.30;58.00;;;;;;5057815;28;20028;-77
2022/03/09 01:30:24;;;;;;;8.80;4.93;;;-0.40;58.00;;;;;;5062141;28;20031;-76
2022/03/09 01:32:49;;;;;;;12.65;5.90;;;-0.40;58.10;;;;;;5044606;28;20055;-77
2022/03/09 01:35:15;;;;;;;8.48;5.00;;;-0.40;58.10;;;;;;5044857;28;20067;-76
2022/03/09 01:37:40;;;;;;;10.75;4.60;;;-0.40;58.10;;;;;;5032137;28;20036;-77
2022/03/09 01:40:07;;;;;;;7.05;4.78;;;-0.50;58.10;;;;;;5036584;28;20047;-77
2022/03/09 01:42:32;;;;;;;8.68;4.93;;;-0.60;58.20;;;;;;5059239;28;20043;-76
2022/03/09 01:45:06;;;;;;;12.80;5.68;;;-0.60;58.30;;;;;;5035969;28;20043;-76
2022/03/09 01:47:31;;;;;;;8.73;5.50;;;-0.60;58.60;;;;;;5033491;28;20045;-75
2022/03/09 01:49:57;;;;;;;8.50;5.15;;;-0.60;58.60;;;;;;5054123;28;20040;-76
2022/03/09 01:52:23;;;;;;;12.18;5.65;;;-0.60;58.60;;;;;;5060202;28;20032;-76
2022/03/09 01:54:48;;;;;;;11.98;5.35;;;-0.70;58.50;;;;;;5034073;28;20075;-77
2022/03/09 01:57:14;;;;;;;12.40;5.78;;;-0.70;58.60;;;;;;5042936;28;20044;-76
2022/03/09 01:59:40;;;;;;;7.00;5.03;;;-0.70;58.70;;;;;;5058305;28;20382;-76
2022/03/09 02:02:05;;;;;;;10.13;5.10;;;-0.70;58.80;;;;;;5049233;28;20028;-76
2022/03/09 02:04:31;;;;;;;7.32;5.05;;;-0.80;58.80;;;;;;5064669;28;20122;-76
2022/03/09 02:06:56;;;;;;;8.60;5.18;;;-0.80;58.80;;;;;;5047442;28;20032;-75
2022/03/09 02:12:06;;;;;;;8.57;5.43;;;-0.90;58.90;;;;;;5058473;28;20560;-76
2022/03/09 02:14:36;;;;;;;10.68;5.03;;;-0.90;59.00;;;;;;5038123;28;20107;-77
2022/03/09 02:17:04;;;;;;;9.02;5.28;;;-0.90;59.20;;;;;;5046030;28;20045;-75
2022/03/09 02:19:30;;;;;;;10.48;5.65;;;-0.90;59.20;;;;;;5035544;28;20044;-76
2022/03/09 02:22:06;;;;;;;10.10;5.25;;;-0.90;59.30;;;;;;5060335;28;20036;-76
2022/03/09 02:24:32;;;;;;;10.38;5.38;;;-0.90;59.50;;;;;;5051129;28;20064;-76
2022/03/09 02:26:58;;;;;;;7.35;4.82;;;-0.90;59.50;;;;;;5035144;28;20028;-76
2022/03/09 02:29:23;;;;;;;10.30;5.15;;;-1.00;59.30;;;;;;5042275;28;20036;-76
2022/03/09 02:31:49;;;;;;;10.63;5.60;;;-1.10;59.30;;;;;;5033527;28;20036;-76
2022/03/09 02:34:15;;;;;;;7.38;4.78;;;-1.10;59.40;;;;;;5049388;28;20094;-75
2022/03/09 02:36:40;;;;;;;9.55;5.00;;;-1.20;59.40;;;;;;5034722;28;20119;-76
2022/03/09 02:39:06;;;;;;;8.60;5.13;;;-1.20;59.60;;;;;;5050858;28;20476;-76
2022/03/09 02:41:33;;;;;;;13.18;5.38;;;-1.20;59.70;;;;;;5044245;28;20500;-77
2022/03/09 02:44:00;;;;;;;9.85;5.22;;;-1.20;59.90;;;;;;5059971;28;20028;-75
2022/03/09 02:46:26;;;;;;;8.95;4.82;;;-1.20;60.00;;;;;;5043793;28;20627;-75
2022/03/09 02:48:52;;;;;;;10.18;5.53;;;-1.20;60.00;;;;;;5053825;28;20101;-76
2022/03/09 02:51:17;;;;;;;13.23;6.63;;;-1.20;60.00;;;;;;5046991;28;20039;-77
2022/03/09 02:53:43;;;;;;;12.80;5.72;;;-1.20;60.10;;;;;;5067820;28;20032;-77
2022/03/09 02:56:09;;;;;;;9.13;5.00;;;-1.20;60.10;;;;;;5022982;28;20574;-77
2022/03/09 02:58:34;;;;;;;11.07;5.32;;;-1.30;60.10;;;;;;5052004;28;20029;-76
2022/03/09 03:00:59;;;;;;;11.18;5.10;;;-1.30;60.10;;;;;;5058399;28;20033;-75
2022/03/09 03:03:25;;;;;;;9.57;5.00;;;-1.30;60.10;;;;;;5052239;28;20032;-76
2022/03/09 03:05:51;;;;;;;9.68;5.28;;;-1.30;60.30;;;;;;5043857;28;20792;-77
2022/03/09 03:08:16;;;;;;;8.60;5.03;;;-1.30;60.50;;;;;;5059109;28;20652;-76
2022/03/09 03:10:42;;;;;;;8.05;5.05;;;-1.30;60.50;;;;;;5054594;28;20028;-76
2022/03/09 03:13:07;;;;;;;11.77;5.30;;;-1.30;60.60;;;;;;5058509;28;20449;-76
2022/03/09 03:15:33;;;;;;;13.60;6.22;;;-1.30;60.60;;;;;;5035998;28;20621;-77
2022/03/09 03:17:59;;;;;;;11.07;5.25;;;-1.30;60.60;;;;;;5039747;28;20078;-76
2022/03/09 03:20:24;;;;;;;7.32;5.05;;;-1.40;60.50;;;;;;5066316;28;20048;-76
2022/03/09 03:22:50;;;;;;;9.15;4.88;;;-1.50;60.50;;;;;;5027759;28;20043;-75
2022/03/09 03:25:15;;;;;;;8.45;5.00;;;-1.60;60.60;;;;;;5042382;28;20028;-75
2022/03/09 03:27:41;;;;;;;10.13;5.90;;;-1.60;60.70;;;;;;5042250;28;20412;-75
2022/03/09 03:30:07;;;;;;;8.63;5.28;;;-1.60;60.90;;;;;;5042807;28;20110;-75
2022/03/09 03:32:32;;;;;;;9.48;5.65;;;-1.60;61.00;;;;;;5045805;28;20530;-76
2022/03/09 03:34:58;;;;;;;13.52;6.53;;;-1.60;61.20;;;;;;5037770;28;20040;-76
2022/03/09 03:37:23;;;;;;;10.95;6.28;;;-1.60;61.20;;;;;;5044913;28;20028;-77
2022/03/09 03:39:49;;;;;;;9.27;5.22;;;-1.60;61.30;;;;;;5049163;28;20408;-76
2022/03/09 03:42:14;;;;;;;10.88;5.22;;;-1.60;61.30;;;;;;5060250;28;20546;-76
2022/03/09 03:44:40;;;;;;;10.07;5.70;;;-1.60;61.30;;;;;;5062134;28;20033;-76
2022/03/09 03:47:06;;;;;;;11.27;5.93;;;-1.60;61.50;;;;;;5053710;28;20032;-76
2022/03/09 03:49:31;;;;;;;8.77;5.70;;;-1.60;61.50;;;;;;5064881;28;20101;-75
2022/03/09 03:51:57;;;;;;;12.48;6.18;;;-1.60;61.60;;;;;;5041980;28;20072;-75
2022/03/09 03:54:22;;;;;;;10.85;5.45;;;-1.60;61.60;;;;;;5053405;28;20138;-76
2022/03/09 03:56:47;;;;;;;13.52;5.57;;;-1.70;61.60;;;;;;5062570;28;20112;-76
2022/03/09 03:59:13;;;;;;;12.25;5.55;;;-1.70;61.60;;;;;;5061684;28;20062;-75
2022/03/09 04:01:39;;;;;;;10.52;5.50;;;-1.70;61.60;;;;;;5051870;28;20416;-77
2022/03/09 04:04:04;;;;;;;10.45;6.28;;;-1.80;61.60;;;;;;5043954;28;20192;-76
2022/03/09 04:06:30;;;;;;;14.80;7.30;;;-1.80;61.70;;;;;;5060434;28;20552;-76
2022/03/09 04:08:55;;;;;;;12.50;5.82;;;-1.80;61.80;;;;;;5060163;28;20031;-75
2022/03/09 04:11:21;;;;;;;13.23;6.47;;;-1.90;61.70;;;;;;5067075;28;20378;-76
2022/03/09 04:13:46;;;;;;;11.85;6.50;;;-1.90;61.90;;;;;;5039416;28;20035;-77
2022/03/09 04:16:12;;;;;;;14.02;6.53;;;-1.90;61.90;;;;;;5047232;28;20127;-76
2022/03/09 04:18:37;;;;;;;11.27;5.97;;;-1.90;62.10;;;;;;5051281;28;20025;-75
2022/03/09 04:21:03;;;;;;;11.65;5.70;;;-1.90;62.10;;;;;;5057829;28;20043;-75
2022/03/09 04:23:28;;;;;;;11.02;5.18;;;-1.90;62.00;;;;;;5063088;28;20071;-75
2022/03/09 04:25:54;;;;;;;9.70;5.70;;;-2.00;62.00;;;;;;5038060;28;20055;-76
2022/03/09 04:28:19;;;;;;;9.02;5.28;;;-2.00;62.10;;;;;;5013834;28;20025;-75
2022/03/09 04:30:45;;;;;;;10.50;6.03;;;-2.10;62.10;;;;;;5052767;28;20028;-76
2022/03/09 04:33:11;;;;;;;11.18;5.95;;;-2.20;62.20;;;;;;5044549;28;20129;-76
2022/03/09 04:35:36;;;;;;;12.23;6.03;;;-2.20;62.30;;;;;;5053301;28;20749;-76
2022/03/09 04:38:02;;;;;;;11.90;6.18;;;-2.20;62.50;;;;;;5057384;28;20043;-75
2022/03/09 04:40:27;;;;;;;10.95;6.20;;;-2.20;62.70;;;;;;5042209;28;20086;-75
2022/03/09 04:42:53;;;;;;;10.55;6.70;;;-2.20;62.70;;;;;;5060975;28;20040;-75
2022/03/09 04:45:18;;;;;;;12.25;6.82;;;-2.20;62.90;;;;;;5038785;28;20373;-75
2022/03/09 04:47:44;;;;;;;10.10;5.72;;;-2.30;62.80;;;;;;5031768;28;20065;-76
2022/03/09 04:50:09;;;;;;;12.20;6.85;;;-2.20;62.90;;;;;;5046320;28;20044;-76
2022/03/09 04:52:35;;;;;;;11.20;6.03;;;-2.20;63.00;;;;;;5058661;28;20063;-75
2022/03/09 04:55:00;;;;;;;12.98;6.22;;;-2.20;63.10;;;;;;5058033;28;20037;-75
2022/03/09 04:57:26;;;;;;;10.18;6.32;;;-2.20;63.90;;;;;;5057427;28;20060;-76
2022/03/09 04:59:52;;;;;;;13.30;6.45;;;-2.20;63.20;;;;;;5042883;28;20040;-77
2022/03/09 05:02:17;;;;;;;11.80;5.82;;;-2.20;63.20;;;;;;5054424;28;20083;-76
2022/03/09 05:04:43;;;;;;;10.27;6.72;;;-2.30;63.20;;;;;;5056008;28;20048;-75
2022/03/09 05:07:08;;;;;;;12.70;7.05;;;-2.30;63.20;;;;;;5031840;28;20025;-76
2022/03/09 05:09:34;;;;;;;11.48;6.57;;;-2.30;63.20;;;;;;5037640;28;20054;-77
2022/03/09 05:11:59;;;;;;;11.52;6.35;;;-2.30;63.30;;;;;;5066704;28;20090;-76
2022/03/09 05:14:25;;;;;;;14.57;6.20;;;-2.40;63.20;;;;;;5042609;28;20056;-76
2022/03/09 05:16:51;;;;;;;12.82;6.63;;;-2.40;63.40;;;;;;5036310;28;20049;-76
2022/03/09 05:19:16;;;;;;;11.68;5.72;;;-2.40;63.50;;;;;;5041232;28;20071;-76
2022/03/09 05:21:42;;;;;;;11.63;5.85;;;-2.40;63.50;;;;;;5054722;28;20090;-76
2022/03/09 05:24:07;;;;;;;9.82;5.80;;;-2.40;63.50;;;;;;5053159;28;20063;-76
2022/03/09 05:26:33;;;;;;;9.82;5.47;;;-2.40;63.60;;;;;;5054826;28;20135;-74
2022/03/09 05:28:58;;;;;;;23.55;9.32;;;-2.40;63.60;;;;;;5031202;28;20037;-75
2022/03/09 05:31:24;;;;;;;16.25;8.07;;;-2.40;63.70;;;;;;5061157;28;20039;-75
2022/03/09 05:33:50;;;;;;;11.27;6.80;;;-2.40;63.70;;;;;;5023850;28;20028;-75
2022/03/09 05:36:15;;;;;;;15.60;8.13;;;-2.40;63.90;;;;;;5052078;28;20025;-76
2022/03/09 05:38:41;;;;;;;14.85;6.18;;;-2.40;63.90;;;;;;5050202;28;20623;-75
2022/03/09 05:41:06;;;;;;;12.70;6.35;;;-2.40;63.90;;;;;;5038516;28;20058;-76
2022/03/09 05:43:32;;;;;;;28.05;12.52;;;-2.50;63.80;;;;;;5021801;28;20036;-76
2022/03/09 05:45:57;;;;;;;13.68;6.47;;;-2.50;63.90;;;;;;5054965;28;20037;-76
2022/03/09 05:48:23;;;;;;;12.80;6.60;;;-2.50;64.00;;;;;;5054688;28;20084;-75
2022/03/09 05:50:48;;;;;;;14.57;7.05;;;-2.50;64.00;;;;;;5050615;28;20078;-75
2022/03/09 05:53:14;;;;;;;18.83;8.55;;;-2.50;64.10;;;;;;5036000;28;20029;-77
2022/03/09 05:55:39;;;;;;;15.27;7.15;;;-2.50;64.10;;;;;;5054550;28;20036;-76
2022/03/09 05:58:05;;;;;;;15.82;7.03;;;-2.50;64.20;;;;;;5024034;28;20529;-76
2022/03/09 06:00:30;;;;;;;12.70;6.85;;;-2.50;64.40;;;;;;5057113;28;20025;-77
2022/03/09 06:02:56;;;;;;;14.52;6.35;;;-2.60;64.20;;;;;;5035500;28;20036;-75
2022/03/09 06:05:22;;;;;;;10.05;5.78;;;-2.60;64.30;;;;;;5063431;28;20036;-75
2022/03/09 06:07:48;;;;;;;14.10;6.35;;;-2.60;64.30;;;;;;5050086;28;20512;-76
2022/03/09 06:10:13;;;;;;;11.25;6.65;;;-2.60;64.80;;;;;;5045526;28;20739;-75
2022/03/09 06:12:39;;;;;;;10.20;5.50;;;-2.60;64.40;;;;;;5054063;28;20043;-77
2022/03/09 06:15:05;;;;;;;11.05;6.10;;;-2.60;64.40;;;;;;5056493;28;20031;-76
2022/03/09 06:17:30;;;;;;;10.52;6.25;;;-2.70;64.40;;;;;;5052755;28;20072;-75
2022/03/09 06:19:56;;;;;;;14.30;6.32;;;-2.70;64.50;;;;;;5029496;28;20142;-75
2022/03/09 06:22:21;;;;;;;12.38;5.05;;;-2.70;64.60;;;;;;5057196;28;20147;-75
2022/03/09 06:24:47;;;;;;;11.25;6.13;;;-2.70;64.70;;;;;;5059068;28;20106;-76
2022/03/09 06:27:12;;;;;;;9.32;6.03;;;-2.80;64.80;;;;;;5062350;28;20039;-75
2022/03/09 06:29:38;;;;;;;10.73;5.53;;;-2.80;64.90;;;;;;5045918;28;20039;-75
2022/03/09 06:32:04;;;;;;;11.05;5.78;;;-2.80;64.90;;;;;;5060026;28;20028;-75
2022/03/09 06:34:29;;;;;;;10.60;5.93;;;-2.70;65.10;;;;;;5057413;28;20039;-76
2022/03/09 06:36:55;;;;;;;11.75;6.13;;;-2.70;65.20;;;;;;5059023;28;20079;-76
2022/03/09 06:39:20;;;;;;;37.08;12.82;;;-2.70;65.20;;;;;;5053158;28;20120;-75
2022/03/09 06:41:46;;;;;;;62.85;19.77;;;-2.60;65.30;;;;;;5060149;28;20042;-76
2022/03/09 06:44:12;;;;;;;68.90;19.08;;;-2.60;65.40;;;;;;5049647;28;20089;-76
2022/03/09 06:46:38;;;;;;;58.08;18.85;;;-2.50;65.40;;;;;;5037021;28;20436;-75
2022/03/09 06:49:04;;;;;;;37.65;17.13;;;-2.50;65.50;;;;;;5045854;28;20370;-75
2022/03/09 06:51:30;;;;;;;57.17;22.52;;;-2.40;65.50;;;;;;5041450;28;20109;-76
2022/03/09 06:53:56;;;;;;;50.25;20.67;;;-2.30;65.60;;;;;;5060299;28;20099;-75
2022/03/09 06:56:21;;;;;;;42.30;17.60;;;-2.20;65.60;;;;;;5040160;28;20496;-75
2022/03/09 06:58:47;;;;;;;35.08;15.38;;;-2.20;65.50;;;;;;5037796;28;20713;-75
2022/03/09 07:01:12;;;;;;;40.03;17.15;;;-2.10;65.60;;;;;;5054714;28;20040;-75
2022/03/09 07:03:38;;;;;;;24.13;12.23;;;-2.00;65.60;;;;;;5039976;28;20126;-76
2022/03/09 07:06:04;;;;;;;173.93;63.65;;;-1.90;65.60;;;;;;5041931;28;20504;-75
2022/03/09 07:08:29;;;;;;;33.03;15.48;;;-1.80;65.60;;;;;;5044915;28;20047;-76
2022/03/09 07:10:55;;;;;;;39.95;16.70;;;-1.70;65.60;;;;;;5050908;28;20097;-76
2022/03/09 07:13:20;;;;;;;37.10;16.00;;;-1.70;65.60;;;;;;5033781;28;20039;-76
2022/03/09 07:15:46;;;;;;;45.28;22.63;;;-1.60;65.60;;;;;;5031957;28;20035;-76
2022/03/09 07:18:12;;;;;;;46.17;19.90;;;-1.50;65.70;;;;;;5056068;28;20043;-75
2022/03/09 07:20:37;;;;;;;38.00;17.85;;;-1.40;65.70;;;;;;5060365;28;20033;-75
2022/03/09 07:23:03;;;;;;;45.22;19.80;;;-1.30;65.70;;;;;;5057062;28;20127;-76
2022/03/09 07:25:28;;;;;;;41.88;17.58;;;-1.10;65.80;;;;;;5035824;28;20038;-77
2022/03/09 07:27:54;;;;;;;33.00;14.43;;;-1.00;65.80;;;;;;5044928;28;20035;-77
2022/03/09 07:30:19;;;;;;;41.42;16.17;;;-0.90;65.80;;;;;;5048741;28;20029;-76
2022/03/09 07:32:45;;;;;;;26.98;12.32;;;-0.80;65.70;;;;;;5057399;28;20075;-75
2022/03/09 07:35:11;;;;;;;25.25;10.40;;;-0.70;65.80;;;;;;5047216;28;20112;-75
2022/03/09 07:37:37;;;;;;;21.63;9.75;;;-0.60;65.70;;;;;;5057926;28;20041;-76
2022/03/09 07:40:06;;;;;;;22.83;11.77;;;-0.50;65.60;;;;;;5032421;28;20243;-76
2022/03/09 07:42:32;;;;;;;15.27;8.18;;;-0.40;65.60;;;;;;5056490;28;20064;-75
2022/03/09 07:44:57;;;;;;;17.35;9.65;;;-0.30;65.40;;;;;;5022330;28;20036;-75
2022/03/09 07:47:23;;;;;;;19.30;9.38;;;-0.20;65.40;;;;;;5059285;28;20111;-75
2022/03/09 07:49:48;;;;;;;21.90;9.98;;;-0.10;65.40;;;;;;5023491;28;20067;-77
2022/03/09 07:52:14;;;;;;;16.45;9.40;;;0.00;65.30;;;;;;5044062;28;20177;-77
2022/03/09 07:54:39;;;;;;;17.70;10.23;;;0.20;65.60;;;;;;5031846;28;20032;-76
2022/03/09 07:57:05;;;;;;;19.95;9.93;;;0.30;66.00;;;;;;5057623;28;20041;-76
2022/03/09 07:59:30;;;;;;;22.25;10.90;;;0.50;65.60;;;;;;5058921;28;20036;-76
2022/03/09 08:01:56;;;;;;;24.77;11.68;;;0.60;65.40;;;;;;5041468;28;20047;-76
2022/03/09 08:04:22;;;;;;;21.45;9.02;;;0.80;65.40;;;;;;5058378;28;20506;-77
2022/03/09 08:06:48;;;;;;;18.60;9.82;;;0.90;65.40;;;;;;5007531;28;20036;-78
2022/03/09 08:09:14;;;;;;;21.80;9.27;;;1.10;65.50;;;;;;5042904;28;20049;-76
2022/03/09 08:11:39;;;;;;;15.45;8.32;;;1.30;65.50;;;;;;5050720;28;20037;-76
2022/03/09 08:14:05;;;;;;;19.25;8.90;;;1.50;65.40;;;;;;5037125;28;20061;-76
2022/03/09 08:16:30;;;;;;;19.05;8.88;;;1.70;65.30;;;;;;5062281;28;20172;-77
2022/03/09 08:18:56;;;;;;;18.90;8.73;;;1.90;65.00;;;;;;5059056;28;20047;-77
2022/03/09 08:21:21;;;;;;;18.38;9.13;;;2.00;64.60;;;;;;5035836;28;20032;-76
2022/03/09 08:23:47;;;;;;;14.18;8.15;;;2.20;64.50;;;;;;5059230;28;20033;-76
2022/03/09 08:26:12;;;;;;;19.98;8.20;;;2.40;64.40;;;;;;5063432;28;20056;-77
2022/03/09 08:28:38;;;;;;;15.82;7.82;;;2.60;64.30;;;;;;5061142;28;20116;-77
2022/03/09 08:31:03;;;;;;;26.63;11.73;;;2.70;64.10;;;;;;5053860;28;20071;-77
2022/03/09 08:33:29;;;;;;;21.55;11.27;;;2.90;63.80;;;;;;5063565;28;20033;-78
2022/03/09 08:35:55;;;;;;;14.20;8.40;;;3.10;63.40;;;;;;5063110;28;20032;-78
2022/03/09 08:38:20;;;;;;;17.42;7.25;;;3.20;63.20;;;;;;5041058;28;20524;-79
2022/03/09 08:40:46;;;;;;;13.70;7.60;;;3.50;63.20;;;;;;5062833;28;20028;-78
2022/03/09 08:43:11;;;;;;;16.48;8.23;;;3.70;63.20;;;;;;5011697;28;20054;-79
2022/03/09 08:45:37;;;;;;;15.65;7.95;;;3.90;63.30;;;;;;5059757;28;20052;-78
2022/03/09 08:48:03;;;;;;;15.98;7.22;;;4.20;63.20;;;;;;5059943;28;20029;-78
2022/03/09 08:50:29;;;;;;;13.77;8.13;;;4.40;63.10;;;;;;5048718;28;20067;-78
2022/03/09 08:52:54;;;;;;;16.45;8.40;;;4.60;62.80;;;;;;5055549;28;20087;-78
2022/03/09 08:55:20;;;;;;;15.88;7.55;;;4.80;62.40;;;;;;5060983;28;20082;-78
2022/03/09 08:57:45;;;;;;;14.20;7.75;;;5.00;62.10;;;;;;5050962;28;20090;-80
2022/03/09 09:00:11;;;;;;;16.55;8.70;;;5.20;62.00;;;;;;5045979;28;20029;-78
2022/03/09 09:02:37;;;;;;;13.38;8.23;;;5.50;61.90;;;;;;5057842;28;20036;-79
2022/03/09 09:05:02;;;;;;;17.90;8.15;;;5.70;61.50;;;;;;5080204;28;20118;-78
2022/03/09 09:07:28;;;;;;;11.20;6.82;;;5.90;61.20;;;;;;5059324;28;20043;-78
2022/03/09 09:09:53;;;;;;;16.58;8.05;;;6.10;60.90;;;;;;5061266;28;20124;-79
2022/03/09 09:12:19;;;;;;;14.68;7.22;;;6.40;60.70;;;;;;5039677;28;20040;-79
2022/03/09 09:14:44;;;;;;;13.98;7.22;;;6.60;60.40;;;;;;5065734;28;20041;-80
2022/03/09 09:17:10;;;;;;;12.45;7.65;;;6.80;60.10;;;;;;5050960;28;20517;-78
2022/03/09 09:19:36;;;;;;;14.40;7.40;;;7.00;59.60;;;;;;5047567;28;20035;-79
2022/03/09 09:22:03;;;;;;;13.00;7.40;;;7.20;59.40;;;;;;5018341;28;20457;-79
2022/03/09 09:24:29;;;;;;;13.60;7.70;;;7.30;59.20;;;;;;5040912;28;20036;-79
2022/03/09 09:26:54;;;;;;;12.07;7.57;;;7.50;59.00;;;;;;5057719;28;20552;-78
2022/03/09 09:29:20;;;;;;;13.73;8.18;;;7.70;58.60;;;;;;5034853;28;20519;-79
2022/03/09 09:31:47;;;;;;;13.95;7.25;;;7.80;58.30;;;;;;5045347;28;20064;-79
2022/03/09 09:34:12;;;;;;;15.20;7.93;;;8.00;58.20;;;;;;5059425;28;20122;-79
2022/03/09 09:36:41;;;;;;;14.20;6.97;;;8.20;57.80;;;;;;5057981;28;20485;-79
2022/03/09 09:39:06;;;;;;;16.42;7.35;;;8.30;57.40;;;;;;5058743;28;20040;-78
2022/03/09 09:41:33;;;;;;;21.42;7.38;;;8.40;57.10;;;;;;5054864;28;20071;-79
2022/03/09 09:44:00;;;;;;;14.07;7.68;;;8.60;56.90;;;;;;5031229;28;20472;-78
2022/03/09 09:46:26;;;;;;;15.05;7.55;;;8.70;56.50;;;;;;5040752;28;20043;-79
2022/03/09 09:48:52;;;;;;;16.70;7.90;;;8.90;56.20;;;;;;5055939;28;20658;-79
2022/03/09 09:51:17;;;;;;;13.43;6.90;;;9.00;55.90;;;;;;5050428;28;20047;-79
2022/03/09 09:53:43;;;;;;;10.98;6.47;;;9.20;56.00;;;;;;5038640;28;20029;-80
2022/03/09 09:56:09;;;;;;;11.23;6.28;;;9.30;55.80;;;;;;5041727;28;20028;-78
2022/03/09 09:58:36;;;;;;;13.20;7.15;;;9.60;56.00;;;;;;5055041;28;20106;-80
2022/03/09 10:01:02;;;;;;;11.52;6.75;;;9.90;55.80;;;;;;5061043;28;20875;-79
2022/03/09 10:03:27;;;;;;;11.40;7.38;;;10.20;55.50;;;;;;5059077;28;20044;-78
2022/03/09 10:05:53;;;;;;;12.57;7.05;;;10.40;55.30;;;;;;5054881;28;20029;-78
2022/03/09 10:08:18;;;;;;;12.23;7.43;;;10.70;54.80;;;;;;5056057;28;20736;-78
2022/03/09 10:10:53;;;;;;;10.63;7.05;;;10.90;54.20;;;;;;5058331;28;20025;-79
2022/03/09 10:13:19;;;;;;;19.75;8.40;;;11.10;53.80;;;;;;5017469;28;20128;-79
2022/03/09 10:15:46;;;;;;;11.93;7.60;;;11.30;53.40;;;;;;5055011;28;20074;-78
2022/03/09 10:18:19;;;;;;;13.20;7.43;;;11.40;52.90;;;;;;5038074;28;20166;-79
2022/03/09 10:20:45;;;;;;;13.02;7.15;;;11.60;53.00;;;;;;5032010;28;20032;-79
2022/03/09 10:23:11;;;;;;;10.13;6.85;;;11.90;53.10;;;;;;5054732;28;20057;-79
2022/03/09 10:25:38;;;;;;;12.57;8.13;;;12.20;53.20;;;;;;5049952;28;20060;-80
2022/03/09 10:28:07;;;;;;;12.65;7.43;;;12.40;52.70;;;;;;5057756;28;20045;-77
2022/03/09 10:30:34;;;;;;;13.07;7.32;;;12.70;52.20;;;;;;5054484;28;20025;-79
2022/03/09 10:33:01;;;;;;;12.57;6.78;;;12.90;52.60;;;;;;5044204;28;20487;-78
2022/03/09 10:35:29;;;;;;;9.65;6.43;;;13.10;51.80;;;;;;5032340;28;20040;-79
2022/03/09 10:37:54;;;;;;;9.30;6.70;;;13.40;51.50;;;;;;5065808;28;20043;-79
2022/03/09 10:40:21;;;;;;;13.88;7.38;;;13.60;51.00;;;;;;5058044;28;20027;-78
2022/03/09 10:42:47;;;;;;;12.75;7.13;;;13.80;50.10;;;;;;5048845;28;20047;-79
2022/03/09 10:45:13;;;;;;;9.25;6.43;;;13.90;49.70;;;;;;5019046;28;20449;-80
2022/03/09 10:47:42;;;;;;;14.05;6.90;;;14.00;49.10;;;;;;5058038;28;20424;-80
2022/03/09 10:50:22;;;;;;;11.40;6.28;;;14.10;48.80;;;;;;5023502;28;20061;-79
2022/03/09 10:52:57;;;;;;;9.75;6.45;;;14.20;48.40;;;;;;5038899;28;20051;-79
2022/03/09 10:55:23;;;;;;;11.70;6.70;;;14.40;48.40;;;;;;5070803;28;20039;-79
2022/03/09 10:57:50;;;;;;;11.02;6.72;;;14.60;48.10;;;;;;5053502;28;20527;-80
2022/03/09 11:00:15;;;;;;;9.70;6.60;;;14.80;47.60;;;;;;5033599;28;21377;-79
2022/03/09 11:02:49;;;;;;;8.63;5.18;;;14.90;47.20;;;;;;5056729;28;20591;-79
2022/03/09 11:05:17;;;;;;;8.88;5.68;;;15.10;47.10;;;;;;5022898;28;20032;-79
2022/03/09 11:07:42;;;;;;;9.25;5.70;;;15.30;47.30;;;;;;5038962;28;20094;-78
2022/03/09 11:10:10;;;;;;;10.20;6.72;;;15.60;46.90;;;;;;5060258;28;20044;-79
2022/03/09 11:12:38;;;;;;;8.55;5.57;;;15.80;46.50;;;;;;5047379;28;20074;-78
2022/03/09 11:15:05;;;;;;;9.80;6.00;;;16.00;46.20;;;;;;5034023;28;20188;-79
2022/03/09 11:17:30;;;;;;;10.35;5.88;;;16.20;45.90;;;;;;5047756;28;20127;-79
2022/03/09 11:19:56;;;;;;;8.93;6.25;;;16.40;45.30;;;;;;5020693;28;20230;-79
2022/03/09 11:22:21;;;;;;;10.75;5.30;;;16.50;45.00;;;;;;5048983;28;20032;-79
2022/03/09 11:24:48;;;;;;;7.55;5.13;;;16.60;44.90;;;;;;5042753;28;20025;-79
2022/03/09 11:27:14;;;;;;;7.32;5.28;;;16.80;44.90;;;;;;5057116;28;20078;-79
2022/03/09 11:29:40;;;;;;;10.55;6.68;;;17.10;44.90;;;;;;5043560;28;20040;-78
2022/03/09 11:32:07;;;;;;;8.57;5.47;;;17.30;44.30;;;;;;5036529;28;20126;-78
2022/03/09 11:34:33;;;;;;;11.65;6.30;;;17.40;43.70;;;;;;5025299;28;20047;-79
2022/03/09 11:37:03;;;;;;;7.75;5.75;;;17.50;43.90;;;;;;5043877;28;20040;-78
2022/03/09 11:39:28;;;;;;;11.50;5.65;;;17.60;42.60;;;;;;5031451;28;20037;-78
2022/03/09 11:42:21;;;;;;;9.30;6.43;;;17.70;42.70;;;;;;5029614;28;20043;-78
2022/03/09 11:44:48;;;;;;;10.02;5.40;;;17.90;41.30;;;;;;5060102;28;20504;-78
2022/03/09 11:47:13;;;;;;;7.97;5.57;;;17.90;42.20;;;;;;5059367;28;20040;-78
2022/03/09 11:49:41;;;;;;;8.70;5.78;;;17.90;42.00;;;;;;5052592;28;20791;-78
2022/03/09 11:52:14;;;;;;;8.45;5.95;;;18.00;41.30;;;;;;5070410;28;20079;-78
2022/03/09 11:54:44;;;;;;;6.38;4.45;;;18.00;40.80;;;;;;5027045;28;20634;-79
2022/03/09 11:57:11;;;;;;;6.35;4.70;;;17.90;41.00;;;;;;5038403;28;20109;-78
2022/03/09 11:59:36;;;;;;;6.70;4.55;;;18.10;41.40;;;;;;5070712;28;20535;-79
2022/03/09 12:02:11;;;;;;;7.88;5.07;;;18.40;41.10;;;;;;5074124;28;20079;-79
2022/03/09 12:04:40;;;;;;;8.52;5.05;;;18.60;40.20;;;;;;5052118;28;20654;-79
2022/03/09 12:07:06;;;;;;;8.90;6.07;;;18.60;39.50;;;;;;5048007;28;20676;-79
2022/03/09 12:09:52;;;;;;;7.15;5.18;;;18.50;39.30;;;;;;5024631;28;20894;-79
2022/03/09 12:12:18;;;;;;;7.05;5.10;;;18.30;38.20;;;;;;5051173;28;20048;-79
2022/03/09 12:14:59;;;;;;;7.50;4.35;;;18.40;39.10;;;;;;5036240;28;20040;-80
2022/03/09 12:17:28;;;;;;;9.23;4.68;;;18.50;38.10;;;;;;5060158;28;20776;-79
2022/03/09 12:20:25;;;;;;;5.75;4.05;;;18.70;38.70;;;;;;5052517;28;20946;-80
2022/03/09 12:22:57;;;;;;;6.97;3.97;;;18.90;37.80;;;;;;5047938;28;20048;-79
2022/03/09 12:25:47;;;;;;;8.00;4.43;;;19.20;38.30;;;;;;5062680;28;20041;-78
2022/03/09 12:28:25;;;;;;;8.48;4.72;;;19.50;38.10;;;;;;5041337;28;20032;-78
2022/03/09 12:30:53;;;;;;;8.52;5.05;;;19.60;36.60;;;;;;5061135;28;20032;-79
2022/03/09 12:33:29;;;;;;;13.48;6.20;;;19.70;37.70;;;;;;5062339;28;20066;-78
2022/03/09 12:36:10;;;;;;;7.30;4.95;;;19.90;36.30;;;;;;5041468;28;20048;-79
2022/03/09 12:38:36;;;;;;;;;;;19.90;36.30;;;;;;5056381;28;20081;-79